sensor_id;sensor_type;location;lat;lon;timestamp;P1;durP1;ratioP1;P2;durP2;ratioP2
63784;SDS011;49927;48.146;11.420;2023-01-25T00:01:18;29.83;;;12.82;;
63784;SDS011;49927;48.146;11.420;2023-01-25T00:03:44;25.65;;;11.75;;
63784;SDS011;49927;48.146;11.420;2023-01-25T00:06:09;31.20;;;13.63;;
63784;SDS011;49927;48.146;11.420;2023-01-25T00:08:35;36.97;;;12.98;;
63784;SDS011;49927;48.146;11.420;2023-01-25T00:11:02;33.00;;;13.73;;
63784;SDS011;49927;48.146;11.420;2023-01-25T00:13:27;35.08;;;14.55;;
63784;SDS011;49927;48.146;11.420;2023-01-25T00:15:53;27.98;;;11.77;;
63784;SDS011;49927;48.146;11.420;2023-01-25T00:18:25;32.08;;;12.77;;
63784;SDS011;49927;48.146;11.420;2023-01-25T00:20:50;31.80;;;12.70;;
63784;SDS011;49927;48.146;11.420;2023-01-25T00:23:16;29.65;;;12.20;;
63784;SDS011;49927;48.146;11.420;2023-01-25T00:25:41;31.17;;;12.05;;
63784;SDS011;49927;48.146;11.420;2023-01-25T00:28:08;36.08;;;12.45;;
63784;SDS011;49927;48.146;11.420;2023-01-25T00:30:34;36.92;;;12.68;;
63784;SDS011;49927;48.146;11.420;2023-01-25T00:33:01;32.55;;;12.77;;
63784;SDS011;49927;48.146;11.420;2023-01-25T00:35:28;28.48;;;12.32;;
63784;SDS011;49927;48.146;11.420;2023-01-25T00:37:54;34.15;;;12.55;;
63784;SDS011;49927;48.146;11.420;2023-01-25T00:40:20;36.80;;;14.40;;
63784;SDS011;49927;48.146;11.420;2023-01-25T00:42:45;29.40;;;13.20;;
63784;SDS011;49927;48.146;11.420;2023-01-25T00:45:12;31.92;;;13.40;;
63784;SDS011;49927;48.146;11.420;2023-01-25T00:47:38;30.83;;;12.02;;
63784;SDS011;49927;48.146;11.420;2023-01-25T00:50:04;36.85;;;13.95;;
63784;SDS011;49927;48.146;11.420;2023-01-25T00:52:30;32.05;;;13.98;;
63784;SDS011;49927;48.146;11.420;2023-01-25T00:54:56;36.40;;;13.80;;
63784;SDS011;49927;48.146;11.420;2023-01-25T00:57:21;34.58;;;14.43;;
63784;SDS011;49927;48.146;11.420;2023-01-25T00:59:47;35.53;;;13.45;;
63784;SDS011;49927;48.146;11.420;2023-01-25T01:02:14;35.90;;;14.40;;
63784;SDS011;49927;48.146;11.420;2023-01-25T01:04:39;37.35;;;15.20;;
63784;SDS011;49927;48.146;11.420;2023-01-25T01:07:05;36.72;;;14.45;;
63784;SDS011;49927;48.146;11.420;2023-01-25T01:09:31;31.17;;;13.00;;
63784;SDS011;49927;48.146;11.420;2023-01-25T01:11:56;40.38;;;13.88;;
63784;SDS011;49927;48.146;11.420;2023-01-25T01:14:22;31.95;;;14.50;;
63784;SDS011;49927;48.146;11.420;2023-01-25T01:16:48;36.95;;;14.32;;
63784;SDS011;49927;48.146;11.420;2023-01-25T01:19:14;27.83;;;12.38;;
63784;SDS011;49927;48.146;11.420;2023-01-25T01:21:40;34.33;;;13.15;;
63784;SDS011;49927;48.146;11.420;2023-01-25T01:24:07;32.47;;;14.05;;
63784;SDS011;49927;48.146;11.420;2023-01-25T01:26:33;39.53;;;14.70;;
63784;SDS011;49927;48.146;11.420;2023-01-25T01:28:58;36.05;;;16.08;;
63784;SDS011;49927;48.146;11.420;2023-01-25T01:31:24;34.92;;;14.73;;
63784;SDS011;49927;48.146;11.420;2023-01-25T01:33:50;34.97;;;13.05;;
63784;SDS011;49927;48.146;11.420;2023-01-25T01:36:17;34.30;;;14.43;;
63784;SDS011;49927;48.146;11.420;2023-01-25T01:38:44;34.65;;;14.27;;
63784;SDS011;49927;48.146;11.420;2023-01-25T01:41:09;29.77;;;12.80;;
63784;SDS011;49927;48.146;11.420;2023-01-25T01:43:35;35.10;;;13.90;;
63784;SDS011;49927;48.146;11.420;2023-01-25T01:46:01;31.80;;;12.05;;
63784;SDS011;49927;48.146;11.420;2023-01-25T01:48:30;36.25;;;14.88;;
63784;SDS011;49927;48.146;11.420;2023-01-25T01:50:58;33.60;;;13.63;;
63784;SDS011;49927;48.146;11.420;2023-01-25T01:53:26;33.28;;;13.65;;
63784;SDS011;49927;48.146;11.420;2023-01-25T01:55:54;36.10;;;14.35;;
63784;SDS011;49927;48.146;11.420;2023-01-25T01:58:21;32.53;;;13.15;;
63784;SDS011;49927;48.146;11.420;2023-01-25T02:00:47;34.47;;;13.82;;
63784;SDS011;49927;48.146;11.420;2023-01-25T02:03:12;34.55;;;13.55;;
63784;SDS011;49927;48.146;11.420;2023-01-25T02:05:39;32.33;;;13.85;;
63784;SDS011;49927;48.146;11.420;2023-01-25T02:08:07;29.75;;;13.48;;
63784;SDS011;49927;48.146;11.420;2023-01-25T02:10:35;31.92;;;13.18;;
63784;SDS011;49927;48.146;11.420;2023-01-25T02:13:01;39.28;;;14.52;;
63784;SDS011;49927;48.146;11.420;2023-01-25T02:15:27;30.05;;;12.77;;
63784;SDS011;49927;48.146;11.420;2023-01-25T02:17:54;41.38;;;15.30;;
63784;SDS011;49927;48.146;11.420;2023-01-25T02:20:21;31.98;;;13.25;;
63784;SDS011;49927;48.146;11.420;2023-01-25T02:22:50;35.85;;;13.38;;
63784;SDS011;49927;48.146;11.420;2023-01-25T02:25:21;39.53;;;13.52;;
63784;SDS011;49927;48.146;11.420;2023-01-25T02:27:47;31.88;;;14.23;;
63784;SDS011;49927;48.146;11.420;2023-01-25T02:30:16;34.78;;;13.52;;
63784;SDS011;49927;48.146;11.420;2023-01-25T02:32:42;32.40;;;13.13;;
63784;SDS011;49927;48.146;11.420;2023-01-25T02:35:09;36.22;;;14.82;;
63784;SDS011;49927;48.146;11.420;2023-01-25T02:37:41;34.85;;;14.07;;
63784;SDS011;49927;48.146;11.420;2023-01-25T02:40:07;28.25;;;13.65;;
63784;SDS011;49927;48.146;11.420;2023-01-25T02:42:35;34.60;;;13.82;;
63784;SDS011;49927;48.146;11.420;2023-01-25T02:45:00;33.47;;;12.73;;
63784;SDS011;49927;48.146;11.420;2023-01-25T02:47:26;28.38;;;10.73;;
63784;SDS011;49927;48.146;11.420;2023-01-25T02:49:52;29.20;;;13.50;;
63784;SDS011;49927;48.146;11.420;2023-01-25T02:52:17;33.15;;;13.48;;
63784;SDS011;49927;48.146;11.420;2023-01-25T02:54:43;36.10;;;12.35;;
63784;SDS011;49927;48.146;11.420;2023-01-25T02:57:08;34.42;;;14.85;;
63784;SDS011;49927;48.146;11.420;2023-01-25T02:59:35;32.10;;;13.38;;
63784;SDS011;49927;48.146;11.420;2023-01-25T03:02:00;32.35;;;13.25;;
63784;SDS011;49927;48.146;11.420;2023-01-25T03:04:26;30.88;;;12.93;;
63784;SDS011;49927;48.146;11.420;2023-01-25T03:06:51;40.05;;;14.32;;
63784;SDS011;49927;48.146;11.420;2023-01-25T03:09:17;31.38;;;12.48;;
63784;SDS011;49927;48.146;11.420;2023-01-25T03:11:42;36.08;;;13.43;;
63784;SDS011;49927;48.146;11.420;2023-01-25T03:14:08;28.70;;;11.98;;
63784;SDS011;49927;48.146;11.420;2023-01-25T03:16:35;35.20;;;12.05;;
63784;SDS011;49927;48.146;11.420;2023-01-25T03:19:00;30.08;;;12.85;;
63784;SDS011;49927;48.146;11.420;2023-01-25T03:21:26;29.40;;;12.82;;
63784;SDS011;49927;48.146;11.420;2023-01-25T03:23:53;30.85;;;11.02;;
63784;SDS011;49927;48.146;11.420;2023-01-25T03:26:20;33.53;;;11.63;;
63784;SDS011;49927;48.146;11.420;2023-01-25T03:28:46;29.55;;;12.55;;
63784;SDS011;49927;48.146;11.420;2023-01-25T03:31:13;25.85;;;9.60;;
63784;SDS011;49927;48.146;11.420;2023-01-25T03:33:41;26.17;;;10.60;;
63784;SDS011;49927;48.146;11.420;2023-01-25T03:36:07;31.63;;;11.90;;
63784;SDS011;49927;48.146;11.420;2023-01-25T03:38:33;29.42;;;12.02;;
63784;SDS011;49927;48.146;11.420;2023-01-25T03:40:58;32.13;;;12.82;;
63784;SDS011;49927;48.146;11.420;2023-01-25T03:43:24;29.38;;;12.00;;
63784;SDS011;49927;48.146;11.420;2023-01-25T03:45:50;25.85;;;11.05;;
63784;SDS011;49927;48.146;11.420;2023-01-25T03:48:16;33.13;;;11.90;;
63784;SDS011;49927;48.146;11.420;2023-01-25T03:50:43;31.35;;;12.18;;
63784;SDS011;49927;48.146;11.420;2023-01-25T03:53:14;33.13;;;11.80;;
63784;SDS011;49927;48.146;11.420;2023-01-25T03:55:40;29.30;;;11.95;;
63784;SDS011;49927;48.146;11.420;2023-01-25T03:58:05;32.17;;;11.05;;
63784;SDS011;49927;48.146;11.420;2023-01-25T04:00:31;29.70;;;12.27;;
63784;SDS011;49927;48.146;11.420;2023-01-25T04:02:56;26.88;;;11.02;;
63784;SDS011;49927;48.146;11.420;2023-01-25T04:05:22;29.38;;;11.02;;
63784;SDS011;49927;48.146;11.420;2023-01-25T04:07:48;33.88;;;11.88;;
63784;SDS011;49927;48.146;11.420;2023-01-25T04:10:14;28.33;;;11.77;;
63784;SDS011;49927;48.146;11.420;2023-01-25T04:12:40;25.08;;;10.32;;
63784;SDS011;49927;48.146;11.420;2023-01-25T04:15:06;25.42;;;10.52;;
63784;SDS011;49927;48.146;11.420;2023-01-25T04:17:32;22.98;;;10.23;;
63784;SDS011;49927;48.146;11.420;2023-01-25T04:19:57;29.20;;;12.55;;
63784;SDS011;49927;48.146;11.420;2023-01-25T04:22:23;29.13;;;13.93;;
63784;SDS011;49927;48.146;11.420;2023-01-25T04:24:50;30.88;;;11.45;;
63784;SDS011;49927;48.146;11.420;2023-01-25T04:27:15;29.33;;;11.65;;
63784;SDS011;49927;48.146;11.420;2023-01-25T04:29:41;29.58;;;10.50;;
63784;SDS011;49927;48.146;11.420;2023-01-25T04:32:06;27.55;;;11.50;;
63784;SDS011;49927;48.146;11.420;2023-01-25T04:34:32;21.52;;;9.48;;
63784;SDS011;49927;48.146;11.420;2023-01-25T04:36:57;27.42;;;10.95;;
63784;SDS011;49927;48.146;11.420;2023-01-25T04:39:23;24.75;;;10.68;;
63784;SDS011;49927;48.146;11.420;2023-01-25T04:41:49;31.45;;;11.48;;
63784;SDS011;49927;48.146;11.420;2023-01-25T04:44:15;25.40;;;9.57;;
63784;SDS011;49927;48.146;11.420;2023-01-25T04:46:40;26.35;;;10.38;;
63784;SDS011;49927;48.146;11.420;2023-01-25T04:49:06;21.63;;;8.85;;
63784;SDS011;49927;48.146;11.420;2023-01-25T04:51:31;25.65;;;10.27;;
63784;SDS011;49927;48.146;11.420;2023-01-25T04:53:57;26.38;;;11.13;;
63784;SDS011;49927;48.146;11.420;2023-01-25T04:56:22;31.85;;;12.35;;
63784;SDS011;49927;48.146;11.420;2023-01-25T04:58:49;27.20;;;10.13;;
63784;SDS011;49927;48.146;11.420;2023-01-25T05:01:15;27.67;;;11.45;;
63784;SDS011;49927;48.146;11.420;2023-01-25T05:03:40;31.08;;;10.98;;
63784;SDS011;49927;48.146;11.420;2023-01-25T05:06:06;25.73;;;10.60;;
63784;SDS011;49927;48.146;11.420;2023-01-25T05:08:31;26.70;;;10.45;;
63784;SDS011;49927;48.146;11.420;2023-01-25T05:10:57;28.52;;;12.05;;
63784;SDS011;49927;48.146;11.420;2023-01-25T05:13:22;32.05;;;12.50;;
63784;SDS011;49927;48.146;11.420;2023-01-25T05:15:49;28.92;;;11.70;;
63784;SDS011;49927;48.146;11.420;2023-01-25T05:18:14;29.20;;;11.35;;
63784;SDS011;49927;48.146;11.420;2023-01-25T05:20:40;27.52;;;10.05;;
63784;SDS011;49927;48.146;11.420;2023-01-25T05:23:05;28.02;;;10.57;;
63784;SDS011;49927;48.146;11.420;2023-01-25T05:25:31;28.13;;;11.23;;
63784;SDS011;49927;48.146;11.420;2023-01-25T05:27:56;32.80;;;12.40;;
63784;SDS011;49927;48.146;11.420;2023-01-25T05:30:22;32.05;;;11.60;;
63784;SDS011;49927;48.146;11.420;2023-01-25T05:32:49;26.15;;;10.63;;
63784;SDS011;49927;48.146;11.420;2023-01-25T05:35:14;26.70;;;10.88;;
63784;SDS011;49927;48.146;11.420;2023-01-25T05:37:40;30.63;;;11.55;;
63784;SDS011;49927;48.146;11.420;2023-01-25T05:40:06;30.05;;;12.02;;
63784;SDS011;49927;48.146;11.420;2023-01-25T05:42:32;28.58;;;10.73;;
63784;SDS011;49927;48.146;11.420;2023-01-25T05:44:58;31.27;;;11.82;;
63784;SDS011;49927;48.146;11.420;2023-01-25T05:47:23;30.73;;;11.35;;
63784;SDS011;49927;48.146;11.420;2023-01-25T05:49:50;31.05;;;12.57;;
63784;SDS011;49927;48.146;11.420;2023-01-25T05:52:16;32.17;;;12.65;;
63784;SDS011;49927;48.146;11.420;2023-01-25T05:54:41;32.00;;;12.20;;
63784;SDS011;49927;48.146;11.420;2023-01-25T05:57:07;29.80;;;10.68;;
63784;SDS011;49927;48.146;11.420;2023-01-25T05:59:32;29.65;;;11.73;;
63784;SDS011;49927;48.146;11.420;2023-01-25T06:01:58;27.92;;;9.75;;
63784;SDS011;49927;48.146;11.420;2023-01-25T06:04:23;27.25;;;10.48;;
63784;SDS011;49927;48.146;11.420;2023-01-25T06:06:50;27.10;;;10.30;;
63784;SDS011;49927;48.146;11.420;2023-01-25T06:09:15;19.50;;;9.35;;
63784;SDS011;49927;48.146;11.420;2023-01-25T06:11:41;35.70;;;11.48;;
63784;SDS011;49927;48.146;11.420;2023-01-25T06:14:07;30.13;;;10.73;;
63784;SDS011;49927;48.146;11.420;2023-01-25T06:16:32;25.85;;;10.15;;
63784;SDS011;49927;48.146;11.420;2023-01-25T06:18:58;24.35;;;9.73;;
63784;SDS011;49927;48.146;11.420;2023-01-25T06:21:23;29.65;;;11.65;;
63784;SDS011;49927;48.146;11.420;2023-01-25T06:23:50;21.58;;;9.30;;
63784;SDS011;49927;48.146;11.420;2023-01-25T06:26:16;29.80;;;10.98;;
63784;SDS011;49927;48.146;11.420;2023-01-25T06:28:41;24.92;;;10.05;;
63784;SDS011;49927;48.146;11.420;2023-01-25T06:31:08;27.10;;;11.00;;
63784;SDS011;49927;48.146;11.420;2023-01-25T06:33:35;25.80;;;11.43;;
63784;SDS011;49927;48.146;11.420;2023-01-25T06:36:01;25.52;;;10.25;;
63784;SDS011;49927;48.146;11.420;2023-01-25T06:38:27;28.60;;;10.85;;
63784;SDS011;49927;48.146;11.420;2023-01-25T06:40:57;33.08;;;10.82;;
63784;SDS011;49927;48.146;11.420;2023-01-25T06:43:23;27.02;;;10.98;;
63784;SDS011;49927;48.146;11.420;2023-01-25T06:45:48;23.08;;;9.07;;
63784;SDS011;49927;48.146;11.420;2023-01-25T06:48:14;24.02;;;9.38;;
63784;SDS011;49927;48.146;11.420;2023-01-25T06:50:39;24.10;;;9.65;;
63784;SDS011;49927;48.146;11.420;2023-01-25T06:53:05;24.17;;;10.18;;
63784;SDS011;49927;48.146;11.420;2023-01-25T06:55:30;27.58;;;10.23;;
63784;SDS011;49927;48.146;11.420;2023-01-25T06:57:58;25.30;;;9.48;;
63784;SDS011;49927;48.146;11.420;2023-01-25T07:00:24;32.08;;;11.88;;
63784;SDS011;49927;48.146;11.420;2023-01-25T07:02:49;21.52;;;9.45;;
63784;SDS011;49927;48.146;11.420;2023-01-25T07:05:15;26.05;;;9.75;;
63784;SDS011;49927;48.146;11.420;2023-01-25T07:07:43;25.27;;;10.80;;
63784;SDS011;49927;48.146;11.420;2023-01-25T07:10:09;27.50;;;10.45;;
63784;SDS011;49927;48.146;11.420;2023-01-25T07:12:35;21.40;;;8.85;;
63784;SDS011;49927;48.146;11.420;2023-01-25T07:15:02;20.48;;;9.02;;
63784;SDS011;49927;48.146;11.420;2023-01-25T07:17:27;24.27;;;9.25;;
63784;SDS011;49927;48.146;11.420;2023-01-25T07:19:53;27.77;;;10.57;;
63784;SDS011;49927;48.146;11.420;2023-01-25T07:22:18;24.35;;;10.48;;
63784;SDS011;49927;48.146;11.420;2023-01-25T07:24:44;22.73;;;9.55;;
63784;SDS011;49927;48.146;11.420;2023-01-25T07:27:09;20.05;;;8.75;;
63784;SDS011;49927;48.146;11.420;2023-01-25T07:29:35;21.67;;;8.68;;
63784;SDS011;49927;48.146;11.420;2023-01-25T07:32:02;18.95;;;9.30;;
63784;SDS011;49927;48.146;11.420;2023-01-25T07:34:27;29.73;;;11.88;;
63784;SDS011;49927;48.146;11.420;2023-01-25T07:36:53;17.90;;;8.13;;
63784;SDS011;49927;48.146;11.420;2023-01-25T07:39:18;20.67;;;9.23;;
63784;SDS011;49927;48.146;11.420;2023-01-25T07:41:44;22.20;;;9.23;;
63784;SDS011;49927;48.146;11.420;2023-01-25T07:44:09;26.33;;;9.35;;
63784;SDS011;49927;48.146;11.420;2023-01-25T07:46:35;22.52;;;10.13;;
63784;SDS011;49927;48.146;11.420;2023-01-25T07:49:02;24.00;;;9.95;;
63784;SDS011;49927;48.146;11.420;2023-01-25T07:51:27;23.92;;;10.20;;
63784;SDS011;49927;48.146;11.420;2023-01-25T07:53:53;21.42;;;10.20;;
63784;SDS011;49927;48.146;11.420;2023-01-25T07:56:20;21.80;;;9.65;;
63784;SDS011;49927;48.146;11.420;2023-01-25T07:58:46;21.67;;;9.45;;
63784;SDS011;49927;48.146;11.420;2023-01-25T08:01:13;20.75;;;9.38;;
63784;SDS011;49927;48.146;11.420;2023-01-25T08:03:39;25.90;;;10.98;;
63784;SDS011;49927;48.146;11.420;2023-01-25T08:06:07;21.83;;;8.55;;
63784;SDS011;49927;48.146;11.420;2023-01-25T08:08:32;20.77;;;9.70;;
63784;SDS011;49927;48.146;11.420;2023-01-25T08:10:59;25.45;;;10.35;;
63784;SDS011;49927;48.146;11.420;2023-01-25T08:13:25;24.65;;;9.45;;
63784;SDS011;49927;48.146;11.420;2023-01-25T08:15:53;23.83;;;9.75;;
63784;SDS011;49927;48.146;11.420;2023-01-25T08:18:19;23.80;;;10.15;;
63784;SDS011;49927;48.146;11.420;2023-01-25T08:20:45;19.40;;;9.32;;
63784;SDS011;49927;48.146;11.420;2023-01-25T08:23:12;20.58;;;9.68;;
63784;SDS011;49927;48.146;11.420;2023-01-25T08:25:37;21.08;;;8.98;;
63784;SDS011;49927;48.146;11.420;2023-01-25T08:28:03;18.35;;;8.80;;
63784;SDS011;49927;48.146;11.420;2023-01-25T08:30:28;22.52;;;9.70;;
63784;SDS011;49927;48.146;11.420;2023-01-25T08:32:54;23.42;;;10.00;;
63784;SDS011;49927;48.146;11.420;2023-01-25T08:35:19;23.00;;;10.65;;
63784;SDS011;49927;48.146;11.420;2023-01-25T08:37:45;24.15;;;10.18;;
63784;SDS011;49927;48.146;11.420;2023-01-25T08:40:12;23.23;;;10.02;;
63784;SDS011;49927;48.146;11.420;2023-01-25T08:42:37;22.05;;;9.43;;
63784;SDS011;49927;48.146;11.420;2023-01-25T08:45:03;18.25;;;8.27;;
63784;SDS011;49927;48.146;11.420;2023-01-25T08:47:29;20.60;;;9.57;;
63784;SDS011;49927;48.146;11.420;2023-01-25T08:49:55;22.48;;;10.07;;
63784;SDS011;49927;48.146;11.420;2023-01-25T08:52:20;20.85;;;9.45;;
63784;SDS011;49927;48.146;11.420;2023-01-25T08:54:46;22.95;;;9.13;;
63784;SDS011;49927;48.146;11.420;2023-01-25T08:57:13;21.98;;;8.70;;
63784;SDS011;49927;48.146;11.420;2023-01-25T08:59:38;23.27;;;9.98;;
63784;SDS011;49927;48.146;11.420;2023-01-25T09:02:04;18.42;;;9.07;;
63784;SDS011;49927;48.146;11.420;2023-01-25T09:04:29;22.17;;;9.57;;
63784;SDS011;49927;48.146;11.420;2023-01-25T09:06:55;21.20;;;10.50;;
63784;SDS011;49927;48.146;11.420;2023-01-25T09:09:20;25.88;;;10.80;;
63784;SDS011;49927;48.146;11.420;2023-01-25T09:11:46;22.00;;;10.30;;
63784;SDS011;49927;48.146;11.420;2023-01-25T09:14:13;20.48;;;9.57;;
63784;SDS011;49927;48.146;11.420;2023-01-25T09:16:38;26.05;;;10.40;;
63784;SDS011;49927;48.146;11.420;2023-01-25T09:19:04;17.73;;;8.98;;
63784;SDS011;49927;48.146;11.420;2023-01-25T09:21:33;22.73;;;7.95;;
63784;SDS011;49927;48.146;11.420;2023-01-25T09:23:58;23.45;;;9.68;;
63784;SDS011;49927;48.146;11.420;2023-01-25T09:26:24;23.20;;;10.43;;
63784;SDS011;49927;48.146;11.420;2023-01-25T09:28:50;22.35;;;10.65;;
63784;SDS011;49927;48.146;11.420;2023-01-25T09:31:18;20.40;;;10.15;;
63784;SDS011;49927;48.146;11.420;2023-01-25T09:33:44;27.27;;;10.85;;
63784;SDS011;49927;48.146;11.420;2023-01-25T09:36:10;22.70;;;10.27;;
63784;SDS011;49927;48.146;11.420;2023-01-25T09:38:35;24.73;;;10.68;;
63784;SDS011;49927;48.146;11.420;2023-01-25T09:41:06;23.48;;;10.25;;
63784;SDS011;49927;48.146;11.420;2023-01-25T09:43:41;23.08;;;9.93;;
63784;SDS011;49927;48.146;11.420;2023-01-25T09:46:21;22.70;;;9.93;;
63784;SDS011;49927;48.146;11.420;2023-01-25T09:48:52;21.42;;;9.25;;
63784;SDS011;49927;48.146;11.420;2023-01-25T09:51:21;25.00;;;9.73;;
63784;SDS011;49927;48.146;11.420;2023-01-25T09:53:50;22.85;;;9.25;;
63784;SDS011;49927;48.146;11.420;2023-01-25T09:56:19;24.23;;;9.95;;
63784;SDS011;49927;48.146;11.420;2023-01-25T09:58:47;23.48;;;9.50;;
63784;SDS011;49927;48.146;11.420;2023-01-25T10:01:26;22.13;;;9.05;;
63784;SDS011;49927;48.146;11.420;2023-01-25T10:03:56;23.35;;;11.98;;
63784;SDS011;49927;48.146;11.420;2023-01-25T10:06:23;22.17;;;9.70;;
63784;SDS011;49927;48.146;11.420;2023-01-25T10:08:56;18.55;;;9.55;;
63784;SDS011;49927;48.146;11.420;2023-01-25T10:11:25;23.38;;;10.07;;
63784;SDS011;49927;48.146;11.420;2023-01-25T10:13:51;20.73;;;9.40;;
63784;SDS011;49927;48.146;11.420;2023-01-25T10:16:19;24.70;;;10.05;;
63784;SDS011;49927;48.146;11.420;2023-01-25T10:18:51;23.52;;;10.48;;
63784;SDS011;49927;48.146;11.420;2023-01-25T10:21:23;19.25;;;9.38;;
63784;SDS011;49927;48.146;11.420;2023-01-25T10:23:57;21.60;;;9.40;;
63784;SDS011;49927;48.146;11.420;2023-01-25T10:26:30;21.13;;;9.50;;
63784;SDS011;49927;48.146;11.420;2023-01-25T10:28:58;24.35;;;9.60;;
63784;SDS011;49927;48.146;11.420;2023-01-25T10:31:28;23.10;;;10.73;;
63784;SDS011;49927;48.146;11.420;2023-01-25T10:33:59;25.90;;;10.82;;
63784;SDS011;49927;48.146;11.420;2023-01-25T10:36:28;25.20;;;11.20;;
63784;SDS011;49927;48.146;11.420;2023-01-25T10:38:55;24.15;;;10.10;;
63784;SDS011;49927;48.146;11.420;2023-01-25T10:41:21;22.10;;;10.63;;
63784;SDS011;49927;48.146;11.420;2023-01-25T10:43:49;28.23;;;11.35;;
63784;SDS011;49927;48.146;11.420;2023-01-25T10:46:16;22.13;;;10.77;;
63784;SDS011;49927;48.146;11.420;2023-01-25T10:48:44;26.75;;;11.50;;
63784;SDS011;49927;48.146;11.420;2023-01-25T10:51:11;26.58;;;11.88;;
63784;SDS011;49927;48.146;11.420;2023-01-25T10:53:57;28.02;;;11.00;;
63784;SDS011;49927;48.146;11.420;2023-01-25T10:56:23;25.02;;;10.52;;
63784;SDS011;49927;48.146;11.420;2023-01-25T10:58:50;25.23;;;10.57;;
63784;SDS011;49927;48.146;11.420;2023-01-25T11:01:26;24.67;;;10.57;;
63784;SDS011;49927;48.146;11.420;2023-01-25T11:03:53;25.17;;;9.82;;
63784;SDS011;49927;48.146;11.420;2023-01-25T11:06:28;23.30;;;10.48;;
63784;SDS011;49927;48.146;11.420;2023-01-25T11:08:59;23.83;;;10.57;;
63784;SDS011;49927;48.146;11.420;2023-01-25T11:11:25;24.10;;;9.60;;
63784;SDS011;49927;48.146;11.420;2023-01-25T11:13:56;24.25;;;9.98;;
63784;SDS011;49927;48.146;11.420;2023-01-25T11:16:29;21.70;;;9.75;;
63784;SDS011;49927;48.146;11.420;2023-01-25T11:18:56;24.77;;;10.30;;
63784;SDS011;49927;48.146;11.420;2023-01-25T11:21:23;28.30;;;11.13;;
63784;SDS011;49927;48.146;11.420;2023-01-25T11:24:01;36.58;;;13.02;;
63784;SDS011;49927;48.146;11.420;2023-01-25T11:26:28;28.20;;;11.15;;
63784;SDS011;49927;48.146;11.420;2023-01-25T11:29:05;27.05;;;11.02;;
63784;SDS011;49927;48.146;11.420;2023-01-25T11:31:32;31.25;;;11.65;;
63784;SDS011;49927;48.146;11.420;2023-01-25T11:33:57;24.23;;;10.93;;
63784;SDS011;49927;48.146;11.420;2023-01-25T11:36:24;27.73;;;11.20;;
63784;SDS011;49927;48.146;11.420;2023-01-25T11:39:03;27.05;;;10.95;;
63784;SDS011;49927;48.146;11.420;2023-01-25T11:47:16;24.38;;;9.55;;
63784;SDS011;49927;48.146;11.420;2023-01-25T11:49:48;32.28;;;10.80;;
63784;SDS011;49927;48.146;11.420;2023-01-25T11:52:23;29.45;;;11.18;;
63784;SDS011;49927;48.146;11.420;2023-01-25T11:54:54;27.38;;;11.00;;
63784;SDS011;49927;48.146;11.420;2023-01-25T11:57:33;32.75;;;12.57;;
63784;SDS011;49927;48.146;11.420;2023-01-25T12:00:12;32.45;;;11.32;;
63784;SDS011;49927;48.146;11.420;2023-01-25T12:03:05;30.27;;;11.80;;
63784;SDS011;49927;48.146;11.420;2023-01-25T12:05:57;29.60;;;11.90;;
63784;SDS011;49927;48.146;11.420;2023-01-25T12:08:32;30.70;;;11.10;;
63784;SDS011;49927;48.146;11.420;2023-01-25T12:11:08;29.83;;;12.48;;
63784;SDS011;49927;48.146;11.420;2023-01-25T12:13:40;26.50;;;10.60;;
63784;SDS011;49927;48.146;11.420;2023-01-25T12:16:14;32.88;;;12.68;;
63784;SDS011;49927;48.146;11.420;2023-01-25T12:21:43;25.90;;;10.82;;
63784;SDS011;49927;48.146;11.420;2023-01-25T12:24:21;25.75;;;9.23;;
63784;SDS011;49927;48.146;11.420;2023-01-25T12:26:57;25.80;;;10.07;;
63784;SDS011;49927;48.146;11.420;2023-01-25T12:29:25;23.73;;;9.52;;
63784;SDS011;49927;48.146;11.420;2023-01-25T12:31:55;28.33;;;11.63;;
63784;SDS011;49927;48.146;11.420;2023-01-25T12:34:25;27.02;;;10.98;;
63784;SDS011;49927;48.146;11.420;2023-01-25T12:36:51;31.88;;;11.68;;
63784;SDS011;49927;48.146;11.420;2023-01-25T12:39:18;27.23;;;10.98;;
63784;SDS011;49927;48.146;11.420;2023-01-25T12:41:46;36.28;;;12.60;;
63784;SDS011;49927;48.146;11.420;2023-01-25T12:44:18;29.63;;;12.38;;
63784;SDS011;49927;48.146;11.420;2023-01-25T12:46:45;30.10;;;12.05;;
63784;SDS011;49927;48.146;11.420;2023-01-25T12:49:18;26.50;;;10.73;;
63784;SDS011;49927;48.146;11.420;2023-01-25T12:51:47;30.70;;;11.13;;
63784;SDS011;49927;48.146;11.420;2023-01-25T12:57:18;29.15;;;11.32;;
63784;SDS011;49927;48.146;11.420;2023-01-25T12:59:52;22.83;;;9.93;;
63784;SDS011;49927;48.146;11.420;2023-01-25T13:05:26;35.85;;;13.65;;
63784;SDS011;49927;48.146;11.420;2023-01-25T13:07:55;43.13;;;14.40;;
63784;SDS011;49927;48.146;11.420;2023-01-25T13:10:26;34.75;;;13.18;;
63784;SDS011;49927;48.146;11.420;2023-01-25T13:12:57;33.17;;;12.80;;
63784;SDS011;49927;48.146;11.420;2023-01-25T13:15:35;39.70;;;14.65;;
63784;SDS011;49927;48.146;11.420;2023-01-25T13:21:02;27.95;;;11.55;;
63784;SDS011;49927;48.146;11.420;2023-01-25T13:23:29;32.65;;;10.75;;
63784;SDS011;49927;48.146;11.420;2023-01-25T13:28:54;29.08;;;10.80;;
63784;SDS011;49927;48.146;11.420;2023-01-25T13:34:09;35.95;;;12.80;;
63784;SDS011;49927;48.146;11.420;2023-01-25T13:36:36;32.50;;;13.43;;
63784;SDS011;49927;48.146;11.420;2023-01-25T13:42:15;40.75;;;15.77;;
63784;SDS011;49927;48.146;11.420;2023-01-25T13:44:48;48.13;;;16.45;;
63784;SDS011;49927;48.146;11.420;2023-01-25T13:47:16;46.40;;;16.55;;
63784;SDS011;49927;48.146;11.420;2023-01-25T13:49:45;42.85;;;15.30;;
63784;SDS011;49927;48.146;11.420;2023-01-25T13:52:13;46.92;;;17.00;;
63784;SDS011;49927;48.146;11.420;2023-01-25T13:54:43;45.03;;;16.50;;
63784;SDS011;49927;48.146;11.420;2023-01-25T13:57:11;45.38;;;16.73;;
63784;SDS011;49927;48.146;11.420;2023-01-25T13:59:38;47.58;;;17.08;;
63784;SDS011;49927;48.146;11.420;2023-01-25T14:02:04;51.53;;;18.35;;
63784;SDS011;49927;48.146;11.420;2023-01-25T14:04:38;47.53;;;16.92;;
63784;SDS011;49927;48.146;11.420;2023-01-25T14:07:04;55.20;;;17.70;;
63784;SDS011;49927;48.146;11.420;2023-01-25T14:09:29;40.78;;;16.95;;
63784;SDS011;49927;48.146;11.420;2023-01-25T14:11:55;44.70;;;15.77;;
63784;SDS011;49927;48.146;11.420;2023-01-25T14:14:24;42.38;;;14.85;;
63784;SDS011;49927;48.146;11.420;2023-01-25T14:17:00;38.05;;;13.82;;
63784;SDS011;49927;48.146;11.420;2023-01-25T14:19:34;43.85;;;14.70;;
63784;SDS011;49927;48.146;11.420;2023-01-25T14:22:12;41.75;;;13.48;;
63784;SDS011;49927;48.146;11.420;2023-01-25T14:24:44;34.15;;;12.63;;
63784;SDS011;49927;48.146;11.420;2023-01-25T14:27:11;31.92;;;11.85;;
63784;SDS011;49927;48.146;11.420;2023-01-25T14:29:37;39.15;;;13.40;;
63784;SDS011;49927;48.146;11.420;2023-01-25T14:32:03;32.88;;;12.27;;
63784;SDS011;49927;48.146;11.420;2023-01-25T14:34:28;36.33;;;13.00;;
63784;SDS011;49927;48.146;11.420;2023-01-25T14:37:03;42.20;;;15.13;;
63784;SDS011;49927;48.146;11.420;2023-01-25T14:39:31;48.13;;;14.85;;